Time;durP1;ratioP1;P1;durP2;ratioP2;P2;SDS_P1;SDS_P2;PMS_P1;PMS_P2;Temp;Humidity;BMP_temperature;BMP_pressure;BME280_temperature;BME280_humidity;BME280_pressure;Samples;Min_cycle;Max_cycle;Signal;HPM_P1;HPM_P2
2021/01/17 00:02:23;;;;;;;6.22;3.95;;;2.30;76.20;;;;;;5052819;28;20374;-66
2021/01/17 00:04:49;;;;;;;6.35;3.72;;;2.40;76.00;;;;;;5052811;28;20029;-65
2021/01/17 00:07:14;;;;;;;5.65;3.38;;;2.40;75.70;;;;;;5070555;28;20027;-65
2021/01/17 00:09:39;;;;;;;5.18;3.47;;;2.50;75.80;;;;;;5070056;28;20029;-65
2021/01/17 00:12:07;;;;;;;7.35;4.47;;;2.50;75.70;;;;;;5052387;28;20096;-65
2021/01/17 00:14:32;;;;;;;6.85;4.00;;;2.50;75.20;;;;;;5062149;28;20036;-65
2021/01/17 00:16:59;;;;;;;4.85;3.55;;;2.60;75.40;;;;;;5052878;28;20112;-65
2021/01/17 00:19:24;;;;;;;6.88;3.95;;;2.60;75.20;;;;;;5061930;28;20036;-64
2021/01/17 00:21:50;;;;;;;6.30;4.00;;;2.60;75.10;;;;;;5072123;28;20017;-65
2021/01/17 00:24:15;;;;;;;6.15;3.75;;;2.70;75.10;;;;;;5069511;28;20481;-65
2021/01/17 00:26:41;;;;;;;7.72;4.35;;;2.70;75.00;;;;;;5072017;28;20021;-65
2021/01/17 00:29:06;;;;;;;5.15;3.40;;;2.70;74.90;;;;;;5063471;28;20098;-65
2021/01/17 00:31:36;;;;;;;7.45;4.05;;;2.70;74.80;;;;;;5052432;28;20021;-65
2021/01/17 00:34:02;;;;;;;7.85;4.72;;;2.80;74.70;;;;;;5056234;28;20037;-65
2021/01/17 00:36:28;;;;;;;7.47;3.92;;;2.80;74.70;;;;;;5052001;28;20584;-65
2021/01/17 00:38:53;;;;;;;9.88;4.93;;;2.80;75.10;;;;;;5056296;28;20107;-66
2021/01/17 00:41:18;;;;;;;7.68;4.70;;;2.80;74.40;;;;;;5053079;28;20031;-66
2021/01/17 00:43:44;;;;;;;7.40;4.57;;;2.90;74.60;;;;;;5054649;28;20040;-66
2021/01/17 00:46:09;;;;;;;8.10;4.75;;;2.90;74.60;;;;;;5071814;28;20078;-66
2021/01/17 00:48:35;;;;;;;7.35;4.20;;;2.90;74.60;;;;;;5053956;28;20444;-66
2021/01/17 00:51:01;;;;;;;8.88;4.68;;;2.90;74.60;;;;;;5070152;28;20024;-66
2021/01/17 00:53:28;;;;;;;9.73;4.72;;;2.90;74.50;;;;;;5054172;28;20267;-66
2021/01/17 00:55:53;;;;;;;7.88;4.70;;;3.00;74.60;;;;;;5050534;28;20537;-66
2021/01/17 00:58:19;;;;;;;8.45;5.25;;;3.00;74.60;;;;;;5051384;28;20032;-67
2021/01/17 01:00:44;;;;;;;9.40;5.38;;;3.00;74.80;;;;;;5071675;28;20021;-66
2021/01/17 01:03:10;;;;;;;8.80;4.90;;;2.90;74.50;;;;;;5056455;28;20044;-66
2021/01/17 01:05:35;;;;;;;10.95;5.38;;;2.90;74.70;;;;;;5070683;28;20476;-66
2021/01/17 01:08:06;;;;;;;9.20;5.38;;;3.00;74.60;;;;;;5052811;28;20021;-66
2021/01/17 01:10:32;;;;;;;9.63;5.93;;;3.00;74.60;;;;;;5051395;28;20427;-66
2021/01/17 01:12:57;;;;;;;9.68;5.35;;;2.90;74.40;;;;;;5051259;28;20037;-66
2021/01/17 01:15:23;;;;;;;8.80;5.55;;;2.90;74.60;;;;;;5051563;28;20022;-66
2021/01/17 01:17:48;;;;;;;9.07;5.50;;;2.90;74.50;;;;;;5051370;28;20116;-66
2021/01/17 01:20:14;;;;;;;8.75;5.45;;;2.90;74.50;;;;;;5065804;28;20150;-66
2021/01/17 01:22:40;;;;;;;8.35;4.80;;;2.90;74.30;;;;;;5059562;28;20389;-66
2021/01/17 01:25:07;;;;;;;10.32;5.97;;;2.90;74.10;;;;;;5066046;28;20036;-66
2021/01/17 01:27:32;;;;;;;9.15;5.35;;;2.90;73.50;;;;;;5070860;28;20029;-66
2021/01/17 01:29:58;;;;;;;7.82;5.00;;;2.90;74.10;;;;;;5052242;28;20517;-66
2021/01/17 01:32:23;;;;;;;8.18;4.80;;;2.80;74.10;;;;;;5051983;28;20060;-66
2021/01/17 01:34:49;;;;;;;7.82;4.55;;;2.90;74.20;;;;;;5062992;28;20410;-66
2021/01/17 01:37:14;;;;;;;7.88;4.72;;;2.90;74.20;;;;;;5071293;28;20017;-66
2021/01/17 01:39:40;;;;;;;8.45;5.18;;;2.90;73.90;;;;;;5067977;28;20437;-66
2021/01/17 01:42:06;;;;;;;8.25;5.18;;;2.90;73.90;;;;;;5071114;28;20017;-66
2021/01/17 01:44:32;;;;;;;9.20;5.47;;;2.90;73.90;;;;;;5058913;28;20501;-65
2021/01/17 01:46:58;;;;;;;7.80;5.28;;;2.90;73.90;;;;;;5049805;28;20040;-66
2021/01/17 01:49:23;;;;;;;10.40;5.47;;;3.00;74.40;;;;;;5059921;28;20038;-66
2021/01/17 01:51:49;;;;;;;7.82;5.22;;;3.00;74.00;;;;;;5069997;28;20419;-66
2021/01/17 01:54:15;;;;;;;9.30;5.70;;;3.00;74.00;;;;;;5055317;28;20037;-65
2021/01/17 01:56:40;;;;;;;10.23;5.97;;;3.00;74.10;;;;;;5052515;28;20017;-66
2021/01/17 01:59:06;;;;;;;11.13;5.80;;;2.90;74.00;;;;;;5054434;28;20047;-66
2021/01/17 02:01:32;;;;;;;8.35;5.32;;;2.90;74.30;;;;;;5050925;28;20104;-66
2021/01/17 02:03:58;;;;;;;10.40;5.00;;;2.90;74.10;;;;;;5055964;28;20135;-66
2021/01/17 02:06:25;;;;;;;10.07;5.40;;;2.80;74.20;;;;;;5070167;28;20047;-66
2021/01/17 02:09:18;;;;;;;10.07;5.38;;;2.80;74.50;;;;;;5063227;28;20021;-66
2021/01/17 02:12:03;;;;;;;10.00;4.85;;;2.70;74.20;;;;;;5050962;28;20031;-66
2021/01/17 02:14:38;;;;;;;8.65;5.07;;;2.70;74.60;;;;;;5061074;28;20508;-65
2021/01/17 02:17:12;;;;;;;10.90;5.43;;;2.60;74.40;;;;;;5064693;28;20024;-65
2021/01/17 02:19:59;;;;;;;7.57;4.75;;;2.70;75.10;;;;;;5052053;28;20600;-65
2021/01/17 02:22:27;;;;;;;8.75;5.40;;;2.70;74.50;;;;;;5050876;28;20091;-65
2021/01/17 02:25:07;;;;;;;9.32;5.13;;;2.70;74.80;;;;;;5049395;28;20499;-65
2021/01/17 02:27:35;;;;;;;7.10;4.85;;;2.60;75.00;;;;;;5059056;28;20040;-65
2021/01/17 02:30:04;;;;;;;7.47;4.97;;;2.60;74.90;;;;;;5062833;28;20481;-65
2021/01/17 02:32:33;;;;;;;10.38;5.82;;;2.70;74.90;;;;;;5049055;28;20037;-66
2021/01/17 02:35:00;;;;;;;9.48;5.57;;;2.70;74.90;;;;;;5051496;28;20045;-66
2021/01/17 02:37:57;;;;;;;9.05;5.25;;;2.60;74.90;;;;;;5050580;28;20106;-66
2021/01/17 02:40:51;;;;;;;9.73;5.05;;;2.60;75.10;;;;;;5051194;28;20072;-65
2021/01/17 02:43:17;;;;;;;8.32;5.03;;;2.70;75.00;;;;;;5060683;28;20188;-66
2021/01/17 02:45:43;;;;;;;8.95;4.90;;;2.70;74.90;;;;;;5073558;28;20033;-65
2021/01/17 02:48:09;;;;;;;10.13;5.55;;;2.70;75.00;;;;;;5069403;28;20024;-66
2021/01/17 02:50:34;;;;;;;9.02;5.72;;;2.70;74.80;;;;;;5053998;28;20022;-66
2021/01/17 02:53:25;;;;;;;7.97;4.95;;;2.70;75.10;;;;;;5056373;28;20040;-66
2021/01/17 02:55:53;;;;;;;9.50;5.47;;;2.70;75.20;;;;;;5060106;28;20025;-66
2021/01/17 02:58:19;;;;;;;9.10;5.82;;;2.70;75.20;;;;;;5060786;28;20037;-66
2021/01/17 03:00:46;;;;;;;8.38;5.32;;;2.70;75.20;;;;;;5061721;28;20135;-66
2021/01/17 03:03:13;;;;;;;9.40;5.80;;;2.70;75.40;;;;;;5053749;28;20033;-66
2021/01/17 03:05:40;;;;;;;7.80;5.05;;;2.80;75.30;;;;;;5053114;28;20029;-66
2021/01/17 03:08:07;;;;;;;8.50;5.32;;;2.80;75.30;;;;;;5055492;28;20041;-66
2021/01/17 03:10:32;;;;;;;8.35;5.05;;;2.80;75.20;;;;;;5052393;28;20033;-66
2021/01/17 03:13:00;;;;;;;7.95;5.13;;;2.80;75.10;;;;;;5053629;28;20040;-66
2021/01/17 03:15:28;;;;;;;8.27;5.10;;;2.80;74.70;;;;;;5053489;28;20563;-66
2021/01/17 03:17:54;;;;;;;9.30;5.15;;;2.70;74.70;;;;;;5052673;28;20120;-66
2021/01/17 03:20:19;;;;;;;9.88;5.57;;;2.70;75.10;;;;;;5053357;28;20126;-66
2021/01/17 03:22:44;;;;;;;13.05;5.22;;;2.70;75.00;;;;;;5054818;28;20025;-64
2021/01/17 03:25:10;;;;;;;8.77;5.40;;;2.70;75.20;;;;;;5072906;28;20028;-65
2021/01/17 03:27:36;;;;;;;9.25;5.20;;;2.70;75.30;;;;;;5070254;28;20041;-66
2021/01/17 03:30:02;;;;;;;9.52;5.20;;;2.60;74.80;;;;;;5053022;28;20017;-65
2021/01/17 03:32:28;;;;;;;7.18;4.97;;;2.60;75.30;;;;;;5053194;28;20033;-65
2021/01/17 03:34:53;;;;;;;8.23;5.30;;;2.70;75.40;;;;;;5073487;28;20039;-65
2021/01/17 03:37:19;;;;;;;10.30;5.13;;;2.70;75.50;;;;;;5071347;28;20028;-65
2021/01/17 03:39:45;;;;;;;7.13;4.63;;;2.70;75.40;;;;;;5052681;28;20036;-65
2021/01/17 03:42:11;;;;;;;8.27;5.10;;;2.70;75.40;;;;;;5053058;28;20389;-65
2021/01/17 03:44:38;;;;;;;9.73;5.07;;;2.60;75.40;;;;;;5070734;28;20041;-66
2021/01/17 03:47:06;;;;;;;8.55;4.60;;;2.60;75.40;;;;;;5064525;28;20120;-65
2021/01/17 03:49:32;;;;;;;9.15;4.97;;;2.70;75.60;;;;;;5066564;28;20032;-66
2021/01/17 03:51:57;;;;;;;8.23;4.57;;;2.70;75.70;;;;;;5062310;28;20099;-66
2021/01/17 03:54:23;;;;;;;10.18;5.15;;;2.70;75.80;;;;;;5068194;28;20500;-66
2021/01/17 03:56:48;;;;;;;9.82;6.22;;;2.70;75.60;;;;;;5064072;28;20113;-65
2021/01/17 03:59:18;;;;;;;11.13;6.20;;;2.80;75.60;;;;;;5053019;28;20033;-65
2021/01/17 04:01:44;;;;;;;9.18;5.38;;;2.80;75.60;;;;;;5054840;28;20472;-65
2021/01/17 04:04:10;;;;;;;9.50;5.10;;;2.90;75.60;;;;;;5066267;28;20028;-65
2021/01/17 04:06:36;;;;;;;7.65;5.05;;;2.90;75.40;;;;;;5066717;28;20025;-65
2021/01/17 04:09:03;;;;;;;9.00;5.07;;;2.90;75.10;;;;;;5058521;28;20029;-65
2021/01/17 04:11:29;;;;;;;12.23;5.57;;;2.90;75.00;;;;;;5052428;28;20033;-65
2021/01/17 04:13:54;;;;;;;9.65;5.32;;;2.90;74.90;;;;;;5053347;28;20500;-65
2021/01/17 04:16:20;;;;;;;11.32;5.43;;;2.90;74.80;;;;;;5052683;28;20025;-66
2021/01/17 04:18:45;;;;;;;11.15;6.03;;;3.00;74.90;;;;;;5060448;28;20062;-65
2021/01/17 04:21:11;;;;;;;10.07;5.72;;;3.00;74.80;;;;;;5055680;28;20016;-65
2021/01/17 04:23:36;;;;;;;9.32;5.53;;;3.00;74.70;;;;;;5059992;28;20032;-66
2021/01/17 04:26:02;;;;;;;10.70;5.53;;;3.00;74.50;;;;;;5051087;28;20083;-65
2021/01/17 04:28:27;;;;;;;9.77;5.68;;;3.00;74.40;;;;;;5060011;28;20025;-65
2021/01/17 04:30:53;;;;;;;9.40;6.13;;;3.00;74.30;;;;;;5065912;28;20020;-65
2021/01/17 04:33:20;;;;;;;10.63;5.63;;;3.00;74.20;;;;;;5057582;28;20045;-65
2021/01/17 04:35:47;;;;;;;11.02;6.05;;;2.90;74.50;;;;;;5067146;28;20021;-65
2021/01/17 04:38:13;;;;;;;9.65;5.63;;;2.90;74.00;;;;;;5057620;28;20162;-66
2021/01/17 04:40:38;;;;;;;8.52;5.63;;;2.90;74.40;;;;;;5057563;28;20116;-66
2021/01/17 04:43:11;;;;;;;12.00;6.65;;;2.90;74.20;;;;;;5065656;28;20396;-66
2021/01/17 04:45:37;;;;;;;11.15;6.22;;;2.90;74.20;;;;;;5065212;28;20501;-66
2021/01/17 04:48:04;;;;;;;12.85;6.93;;;2.80;74.00;;;;;;5052566;28;20048;-66
2021/01/17 04:50:32;;;;;;;11.15;6.25;;;2.80;74.00;;;;;;5050217;28;20049;-65
2021/01/17 04:53:05;;;;;;;10.60;6.20;;;2.70;74.70;;;;;;5058952;28;20033;-66
2021/01/17 04:55:34;;;;;;;11.25;6.60;;;2.70;74.50;;;;;;5053070;28;20126;-66
2021/01/17 04:58:15;;;;;;;11.75;6.50;;;2.60;74.70;;;;;;5056284;28;20036;-65
2021/01/17 05:00:42;;;;;;;11.07;6.25;;;2.60;74.90;;;;;;5070751;28;20036;-65
2021/01/17 05:03:32;;;;;;;10.70;6.35;;;2.50;75.10;;;;;;5059717;28;20029;-66
2021/01/17 05:06:06;;;;;;;10.93;6.55;;;2.50;75.40;;;;;;5050501;28;20544;-66
2021/01/17 05:08:33;;;;;;;11.93;6.55;;;2.50;75.40;;;;;;5051315;28;20036;-66
2021/01/17 05:11:01;;;;;;;9.45;5.78;;;2.50;75.60;;;;;;5054109;28;20037;-66
2021/01/17 05:13:32;;;;;;;9.48;5.70;;;2.50;75.80;;;;;;5051207;28;20033;-66
2021/01/17 05:16:03;;;;;;;10.00;6.25;;;2.50;75.80;;;;;;5050250;28;20385;-66
2021/01/17 05:18:29;;;;;;;10.48;5.88;;;2.50;75.80;;;;;;5050529;28;20071;-66
2021/01/17 05:20:58;;;;;;;11.43;6.80;;;2.50;76.00;;;;;;5050997;28;20036;-66
2021/01/17 05:23:27;;;;;;;12.52;6.65;;;2.50;76.10;;;;;;5052627;28;20611;-66
2021/01/17 05:25:56;;;;;;;10.27;5.88;;;2.60;76.20;;;;;;5071510;28;20025;-65
2021/01/17 05:28:21;;;;;;;11.15;5.75;;;2.60;76.30;;;;;;5069593;28;20028;-66
2021/01/17 05:30:48;;;;;;;12.13;6.40;;;2.50;76.30;;;;;;5050932;28;20048;-66
2021/01/17 05:33:18;;;;;;;11.32;6.13;;;2.50;76.30;;;;;;5057212;28;20032;-65
2021/01/17 05:35:44;;;;;;;11.27;5.90;;;2.60;76.50;;;;;;5052188;28;20531;-65
2021/01/17 05:38:13;;;;;;;9.93;6.30;;;2.60;76.20;;;;;;5052185;28;20033;-65
2021/01/17 05:40:38;;;;;;;11.82;6.50;;;2.60;76.10;;;;;;5050818;28;20553;-65
2021/01/17 05:43:07;;;;;;;9.77;5.93;;;2.60;76.30;;;;;;5055809;28;20029;-65
2021/01/17 05:45:33;;;;;;;12.07;6.30;;;2.60;76.20;;;;;;5069879;28;20132;-66
2021/01/17 05:48:00;;;;;;;9.35;5.78;;;2.60;76.20;;;;;;5064251;28;20119;-66
2021/01/17 05:50:28;;;;;;;10.38;5.28;;;2.60;76.10;;;;;;5051036;28;20041;-65
2021/01/17 05:52:58;;;;;;;9.13;5.78;;;2.60;76.30;;;;;;5052910;28;20043;-66
2021/01/17 05:55:33;;;;;;;10.95;6.55;;;2.60;76.10;;;;;;5071028;28;20111;-65
2021/01/17 05:58:25;;;;;;;13.15;6.00;;;2.50;76.10;;;;;;5064439;28;20497;-66
2021/01/17 06:00:52;;;;;;;9.82;5.35;;;2.50;76.20;;;;;;5052001;28;20059;-66
2021/01/17 06:03:29;;;;;;;10.13;5.43;;;2.50;76.30;;;;;;5057104;28;20036;-66
2021/01/17 06:06:00;;;;;;;9.82;5.43;;;2.50;76.50;;;;;;5071313;28;20021;-66
2021/01/17 06:08:26;;;;;;;10.93;6.13;;;2.50;76.40;;;;;;5058561;28;20120;-66
2021/01/17 06:10:55;;;;;;;10.38;5.57;;;2.50;76.30;;;;;;5070619;28;20476;-66
2021/01/17 06:13:25;;;;;;;9.57;5.57;;;2.40;76.40;;;;;;5060117;28;20082;-66
2021/01/17 06:15:53;;;;;;;11.13;5.95;;;2.30;76.60;;;;;;5051232;28;20060;-66
2021/01/17 06:18:21;;;;;;;9.45;5.68;;;2.30;77.30;;;;;;5061705;28;20033;-66
2021/01/17 06:20:55;;;;;;;12.45;6.63;;;2.30;77.70;;;;;;5074049;28;20048;-66
2021/01/17 06:23:21;;;;;;;10.52;5.57;;;2.30;77.60;;;;;;5054929;28;20131;-66
2021/01/17 06:26:01;;;;;;;9.90;5.90;;;2.30;77.70;;;;;;5054474;28;20182;-66
2021/01/17 06:28:40;;;;;;;10.68;6.18;;;2.30;77.60;;;;;;5062428;28;20025;-66
2021/01/17 06:31:07;;;;;;;11.35;6.07;;;2.30;77.50;;;;;;5073366;28;20032;-66
2021/01/17 06:33:34;;;;;;;11.55;6.05;;;2.30;77.60;;;;;;5072029;28;20555;-66
2021/01/17 06:36:11;;;;;;;10.65;6.05;;;2.30;77.70;;;;;;5073428;28;20032;-66
2021/01/17 06:38:36;;;;;;;9.52;5.50;;;2.30;77.80;;;;;;5062793;28;20029;-66
2021/01/17 06:41:02;;;;;;;10.68;5.95;;;2.20;77.80;;;;;;5054103;28;20512;-66
2021/01/17 06:43:30;;;;;;;9.88;6.38;;;2.20;78.10;;;;;;5053956;28;20398;-67
2021/01/17 06:45:57;;;;;;;9.60;5.25;;;2.20;78.40;;;;;;5054023;28;20557;-66
2021/01/17 06:48:24;;;;;;;9.48;5.57;;;2.10;78.40;;;;;;5052714;28;20033;-66
2021/01/17 06:50:51;;;;;;;9.30;5.82;;;2.00;78.80;;;;;;5059667;28;20052;-66
2021/01/17 06:53:23;;;;;;;10.18;5.22;;;2.10;79.20;;;;;;5072026;28;20076;-65
2021/01/17 06:55:50;;;;;;;10.30;6.10;;;2.10;78.90;;;;;;5070688;28;20028;-66
2021/01/17 06:58:18;;;;;;;9.25;5.35;;;2.10;79.20;;;;;;5060163;28;20078;-66
2021/01/17 07:00:46;;;;;;;10.20;5.40;;;2.10;79.10;;;;;;5072549;28;20381;-65
2021/01/17 07:03:17;;;;;;;11.73;6.97;;;2.20;79.10;;;;;;5066313;28;20032;-65
2021/01/17 07:05:57;;;;;;;9.93;6.13;;;2.20;79.20;;;;;;5053679;28;20057;-65
2021/01/17 07:08:47;;;;;;;12.48;6.57;;;2.20;79.40;;;;;;5056824;28;20567;-65
2021/01/17 07:11:48;;;;;;;12.40;6.53;;;2.30;79.40;;;;;;5060614;28;20017;-65
2021/01/17 07:14:17;;;;;;;8.95;5.55;;;2.40;79.70;;;;;;5042968;28;20045;-65
2021/01/17 07:16:46;;;;;;;8.40;4.32;;;2.40;79.30;;;;;;5053837;28;20108;-65
2021/01/17 07:19:18;;;;;;;8.07;5.00;;;2.50;79.00;;;;;;5055453;28;20055;-65
2021/01/17 07:21:49;;;;;;;9.73;5.40;;;2.50;78.90;;;;;;5052299;28;20094;-66
2021/01/17 07:24:19;;;;;;;9.13;5.43;;;2.50;79.00;;;;;;5053028;28;20040;-65
2021/01/17 07:26:55;;;;;;;9.32;5.63;;;2.50;79.00;;;;;;5053606;28;20057;-65
2021/01/17 07:29:26;;;;;;;9.80;5.55;;;2.50;78.90;;;;;;5069610;28;20025;-66
2021/01/17 07:31:55;;;;;;;8.82;5.05;;;2.50;78.80;;;;;;5073538;28;20052;-67
2021/01/17 07:34:22;;;;;;;7.20;4.65;;;2.40;78.70;;;;;;5055826;28;20041;-64
2021/01/17 07:36:48;;;;;;;9.30;5.25;;;2.40;79.10;;;;;;5053403;28;20075;-65
2021/01/17 07:39:17;;;;;;;10.60;5.93;;;2.30;79.40;;;;;;5065089;28;20604;-65
2021/01/17 07:41:49;;;;;;;9.02;5.40;;;2.20;79.70;;;;;;5062473;28;20187;-65
2021/01/17 07:44:20;;;;;;;9.50;5.40;;;2.20;79.80;;;;;;5053125;28;20405;-64
2021/01/17 07:46:46;;;;;;;8.48;5.10;;;2.20;79.90;;;;;;5052141;28;20527;-65
2021/01/17 07:49:13;;;;;;;7.90;5.25;;;2.20;80.20;;;;;;5066186;28;20028;-65
2021/01/17 07:51:39;;;;;;;10.50;5.40;;;2.20;80.10;;;;;;5072840;28;20021;-66
2021/01/17 07:54:24;;;;;;;10.35;6.28;;;2.20;80.50;;;;;;5057048;28;20402;-66
2021/01/17 07:56:51;;;;;;;9.02;5.93;;;2.20;80.60;;;;;;5073725;28;20673;-65
2021/01/17 07:59:24;;;;;;;8.68;5.35;;;2.30;80.70;;;;;;5069253;28;20071;-66
2021/01/17 08:01:51;;;;;;;8.48;5.00;;;2.30;80.70;;;;;;5057177;28;20025;-66
2021/01/17 08:04:17;;;;;;;10.70;5.60;;;2.30;80.60;;;;;;5053660;28;20197;-66
2021/01/17 08:06:45;;;;;;;9.43;5.18;;;2.30;80.50;;;;;;5052270;28;20033;-65
2021/01/17 08:09:19;;;;;;;8.38;5.57;;;2.30;80.70;;;;;;5066348;28;20107;-66
2021/01/17 08:11:45;;;;;;;8.85;5.13;;;2.30;80.90;;;;;;5056951;28;20405;-65
2021/01/17 08:14:34;;;;;;;9.60;5.65;;;2.30;81.00;;;;;;5057009;28;20037;-66
2021/01/17 08:17:08;;;;;;;11.25;5.80;;;2.30;81.20;;;;;;5052326;28;20028;-66
2021/01/17 08:19:43;;;;;;;8.18;5.35;;;2.30;81.60;;;;;;5052116;28;20493;-65
2021/01/17 08:22:17;;;;;;;10.23;5.70;;;2.20;81.60;;;;;;5052156;28;20029;-66
2021/01/17 08:24:47;;;;;;;8.75;5.07;;;2.10;81.70;;;;;;5070737;28;20063;-66
2021/01/17 08:27:31;;;;;;;9.90;5.80;;;2.10;82.00;;;;;;5058549;28;20037;-65
2021/01/17 08:30:10;;;;;;;9.15;5.28;;;2.10;82.00;;;;;;5068639;28;20404;-65
2021/01/17 08:32:37;;;;;;;13.13;6.80;;;2.10;82.20;;;;;;5058663;28;20910;-68
2021/01/17 08:35:18;;;;;;;12.23;6.63;;;2.20;82.30;;;;;;5067133;28;20476;-68
2021/01/17 08:37:49;;;;;;;9.88;6.40;;;2.20;82.40;;;;;;5058647;28;20053;-68
2021/01/17 08:40:16;;;;;;;10.38;6.45;;;2.20;82.40;;;;;;5069469;28;20034;-67
2021/01/17 08:42:53;;;;;;;11.10;6.65;;;2.30;82.40;;;;;;5051440;28;20039;-66
2021/01/17 08:45:21;;;;;;;10.32;5.82;;;2.30;82.50;;;;;;5051302;28;20080;-68
2021/01/17 08:47:48;;;;;;;10.45;6.50;;;2.40;82.60;;;;;;5050953;28;20102;-67
2021/01/17 08:50:33;;;;;;;12.75;6.97;;;2.50;82.50;;;;;;5051904;28;20504;-68
2021/01/17 08:53:07;;;;;;;11.45;6.10;;;2.50;82.60;;;;;;5050869;28;20123;-67
2021/01/17 08:55:36;;;;;;;9.82;5.63;;;2.50;82.60;;;;;;5051949;28;20033;-68
2021/01/17 08:58:02;;;;;;;13.80;7.00;;;2.50;82.50;;;;;;5053322;28;20652;-67
2021/01/17 09:00:56;;;;;;;10.70;6.40;;;2.50;82.70;;;;;;5067111;28;20128;-67
2021/01/17 09:03:29;;;;;;;10.40;6.32;;;2.50;82.50;;;;;;5052261;28;20025;-66
2021/01/17 09:05:58;;;;;;;12.95;6.78;;;2.50;82.50;;;;;;5050213;28;20545;-67
2021/01/17 09:08:24;;;;;;;10.25;6.38;;;2.50;82.80;;;;;;5053325;28;20028;-67
2021/01/17 09:10:50;;;;;;;11.60;6.68;;;2.50;82.90;;;;;;5057727;28;20033;-67
2021/01/17 09:13:22;;;;;;;13.38;7.82;;;2.60;82.90;;;;;;5051605;28;20477;-67
2021/01/17 09:16:04;;;;;;;11.80;7.05;;;2.60;82.90;;;;;;5051610;28;20025;-68
2021/01/17 09:18:33;;;;;;;20.73;11.30;;;2.60;83.10;;;;;;5048897;28;20033;-67
2021/01/17 09:20:59;;;;;;;14.43;7.75;;;2.60;83.20;;;;;;5052388;28;20087;-67
2021/01/17 09:23:25;;;;;;;10.98;6.20;;;2.60;82.90;;;;;;5059056;28;20033;-67
2021/01/17 09:25:59;;;;;;;12.38;7.13;;;2.50;82.80;;;;;;5051543;28;20025;-67
2021/01/17 09:28:25;;;;;;;13.15;7.43;;;2.50;82.80;;;;;;5053153;28;20115;-67
2021/01/17 09:30:53;;;;;;;14.48;8.77;;;2.50;83.10;;;;;;5062213;28;20029;-67
2021/01/17 09:33:19;;;;;;;13.40;7.10;;;2.50;83.30;;;;;;5052500;28;20115;-68
2021/01/17 09:35:46;;;;;;;13.45;8.10;;;2.50;83.30;;;;;;5051174;28;20424;-67
2021/01/17 09:38:17;;;;;;;10.85;6.65;;;2.50;83.50;;;;;;5058372;28;20033;-68
2021/01/17 09:40:46;;;;;;;9.68;6.45;;;2.50;83.60;;;;;;5070397;28;20032;-67
2021/01/17 09:43:12;;;;;;;12.48;7.22;;;2.50;83.70;;;;;;5054565;28;20028;-67
2021/01/17 09:45:38;;;;;;;12.77;7.20;;;2.40;83.80;;;;;;5071231;28;20045;-67
2021/01/17 09:48:04;;;;;;;13.55;6.93;;;2.40;84.00;;;;;;5066801;28;20033;-67
2021/01/17 09:50:32;;;;;;;11.45;7.22;;;2.50;84.20;;;;;;5059305;28;20029;-67
2021/01/17 09:53:05;;;;;;;13.10;7.45;;;2.50;84.70;;;;;;5071970;28;20028;-67
2021/01/17 09:55:30;;;;;;;12.52;7.35;;;2.60;84.30;;;;;;5073833;28;20040;-67
2021/01/17 09:57:59;;;;;;;11.77;7.25;;;2.50;84.10;;;;;;5054652;28;20024;-67
2021/01/17 10:00:25;;;;;;;12.98;7.53;;;2.60;84.30;;;;;;5058738;28;20025;-67
2021/01/17 10:02:51;;;;;;;13.30;7.07;;;2.60;84.30;;;;;;5064399;28;20018;-67
2021/01/17 10:05:29;;;;;;;18.15;8.45;;;2.60;84.40;;;;;;5054735;28;20099;-67
2021/01/17 10:08:05;;;;;;;16.08;8.45;;;2.60;84.40;;;;;;5063759;28;20028;-67
2021/01/17 10:10:32;;;;;;;17.15;9.82;;;2.60;84.60;;;;;;5054541;28;20036;-67
2021/01/17 10:12:57;;;;;;;20.70;9.68;;;2.60;84.60;;;;;;5060701;28;20032;-67
2021/01/17 10:15:24;;;;;;;26.48;12.90;;;2.70;84.70;;;;;;5054115;28;20028;-67
2021/01/17 10:17:50;;;;;;;20.65;11.00;;;2.80;84.70;;;;;;5061210;28;20028;-67
2021/01/17 10:20:30;;;;;;;21.30;10.20;;;2.80;84.60;;;;;;5053877;28;20112;-67
2021/01/17 10:23:03;;;;;;;15.88;7.70;;;2.80;84.70;;;;;;5065397;28;20039;-67
2021/01/17 10:25:30;;;;;;;17.13;8.60;;;2.80;84.50;;;;;;5074574;28;20107;-67
2021/01/17 10:28:01;;;;;;;19.92;9.63;;;2.80;84.60;;;;;;5069918;28;20025;-67
2021/01/17 10:30:29;;;;;;;16.25;8.20;;;2.90;84.70;;;;;;5074762;28;20047;-67
2021/01/17 10:33:01;;;;;;;15.68;7.65;;;2.90;84.70;;;;;;5062721;28;20124;-67
2021/01/17 10:35:30;;;;;;;17.98;8.55;;;3.00;84.60;;;;;;5074556;28;20029;-67
2021/01/17 10:37:56;;;;;;;14.50;7.43;;;3.00;84.60;;;;;;5068025;28;20021;-70
2021/01/17 10:40:27;;;;;;;19.38;8.40;;;3.10;84.70;;;;;;5054358;28;20489;-67
2021/01/17 10:42:54;;;;;;;17.55;9.10;;;3.10;84.60;;;;;;5059734;28;20021;-68
2021/01/17 10:45:20;;;;;;;13.95;7.70;;;3.20;84.60;;;;;;5052498;28;20041;-66
2021/01/17 10:47:49;;;;;;;16.90;8.65;;;3.30;84.50;;;;;;5061980;28;20040;-66
2021/01/17 10:50:20;;;;;;;16.25;8.25;;;3.30;84.50;;;;;;5065009;28;20071;-66
2021/01/17 10:53:13;;;;;;;19.92;8.82;;;3.50;84.30;;;;;;5056771;28;20421;-66
2021/01/17 10:55:40;;;;;;;13.93;7.30;;;3.50;84.10;;;;;;5066217;28;20036;-67
2021/01/17 10:58:12;;;;;;;14.48;7.93;;;3.50;83.80;;;;;;5081801;28;20090;-67
2021/01/17 11:00:37;;;;;;;16.30;8.52;;;3.60;83.90;;;;;;5072654;28;20047;-67
2021/01/17 11:03:08;;;;;;;16.00;8.38;;;3.70;83.70;;;;;;5065493;28;20028;-66
2021/01/17 11:05:34;;;;;;;17.70;8.55;;;3.80;83.60;;;;;;5061660;28;20067;-67
2021/01/17 11:08:00;;;;;;;15.82;7.07;;;3.80;83.30;;;;;;5054593;28;20056;-66
2021/01/17 11:10:26;;;;;;;15.40;8.48;;;3.80;83.10;;;;;;5065140;28;20543;-67
2021/01/17 11:12:52;;;;;;;17.38;9.88;;;3.90;83.00;;;;;;5066982;28;20477;-67
2021/01/17 11:15:19;;;;;;;16.88;8.68;;;3.90;83.00;;;;;;5073546;28;20040;-67
2021/01/17 11:17:53;;;;;;;14.60;8.30;;;4.00;83.00;;;;;;5073798;28;20017;-67
2021/01/17 11:20:25;;;;;;;17.80;8.80;;;4.00;82.90;;;;;;5067502;28;20112;-67
2021/01/17 11:22:51;;;;;;;17.90;8.93;;;4.10;82.70;;;;;;5057518;28;20017;-67
2021/01/17 11:25:18;;;;;;;17.42;9.63;;;4.20;82.50;;;;;;5093307;28;20024;-67
2021/01/17 11:27:46;;;;;;;17.95;9.00;;;4.20;82.10;;;;;;5052362;28;20147;-67
2021/01/17 11:30:16;;;;;;;15.23;8.75;;;4.20;81.90;;;;;;5063180;28;20035;-67
2021/01/17 11:32:41;;;;;;;16.50;8.95;;;4.20;81.50;;;;;;5073352;28;20119;-66
2021/01/17 11:35:25;;;;;;;11.95;7.90;;;4.20;81.10;;;;;;5064326;28;20135;-66
2021/01/17 11:37:50;;;;;;;16.48;9.40;;;4.20;80.80;;;;;;5059620;28;20021;-66
2021/01/17 11:40:21;;;;;;;17.40;9.77;;;4.10;80.70;;;;;;5059033;28;20040;-67
2021/01/17 11:42:48;;;;;;;16.05;9.82;;;4.10;80.70;;;;;;5053075;28;20025;-66
2021/01/17 11:45:22;;;;;;;16.67;10.27;;;4.10;81.00;;;;;;5052464;28;20106;-66
2021/01/17 11:48:01;;;;;;;21.50;9.45;;;4.20;81.60;;;;;;5068979;28;20362;-66
2021/01/17 11:50:26;;;;;;;18.05;9.25;;;4.20;81.10;;;;;;5066266;28;20060;-67
2021/01/17 11:53:02;;;;;;;16.05;8.30;;;4.30;81.00;;;;;;5052867;28;20075;-67
2021/01/17 11:55:29;;;;;;;16.63;8.75;;;4.30;81.10;;;;;;5052947;28;20518;-66
2021/01/17 11:58:13;;;;;;;15.43;8.85;;;4.40;80.90;;;;;;5079058;28;20052;-66
2021/01/17 12:00:46;;;;;;;16.85;9.25;;;4.40;80.90;;;;;;5065977;28;20025;-66
2021/01/17 12:03:42;;;;;;;18.73;9.40;;;4.40;80.50;;;;;;5051286;28;20021;-66
2021/01/17 12:06:25;;;;;;;14.57;9.40;;;4.40;80.40;;;;;;5051755;28;20120;-66
2021/01/17 12:08:52;;;;;;;15.55;10.10;;;4.40;80.00;;;;;;5071116;28;20036;-66
2021/01/17 12:11:47;;;;;;;16.70;9.13;;;4.40;79.80;;;;;;5072480;28;20736;-66
2021/01/17 12:14:12;;;;;;;15.38;9.38;;;4.40;80.00;;;;;;5069735;28;20062;-66
2021/01/17 12:16:43;;;;;;;17.25;9.02;;;4.40;79.80;;;;;;5071326;28;20133;-66
2021/01/17 12:19:11;;;;;;;16.90;9.20;;;4.40;79.80;;;;;;5072087;28;20389;-66
2021/01/17 12:21:36;;;;;;;19.15;9.52;;;4.40;79.90;;;;;;5070271;28;20025;-66
2021/01/17 12:24:03;;;;;;;16.45;8.75;;;4.40;79.80;;;;;;5061210;28;20040;-66
2021/01/17 12:26:29;;;;;;;14.75;9.25;;;4.50;79.90;;;;;;5072385;28;20431;-66
2021/01/17 12:28:55;;;;;;;17.70;8.48;;;4.50;79.70;;;;;;5072129;28;20070;-65
2021/01/17 12:31:22;;;;;;;19.02;8.43;;;4.50;79.60;;;;;;5070988;28;20028;-66
2021/01/17 12:33:48;;;;;;;16.48;8.77;;;4.50;79.60;;;;;;5060236;28;20505;-67
2021/01/17 12:36:16;;;;;;;17.10;9.55;;;4.50;79.50;;;;;;5051603;28;20869;-66
2021/01/17 12:38:42;;;;;;;15.00;8.23;;;4.50;79.20;;;;;;5051966;28;20480;-66
2021/01/17 12:41:10;;;;;;;17.98;8.82;;;4.50;79.30;;;;;;5051875;28;20547;-66
2021/01/17 12:43:36;;;;;;;18.55;9.32;;;4.50;79.30;;;;;;5087700;28;20048;-65
2021/01/17 12:46:04;;;;;;;19.58;9.13;;;4.50;79.40;;;;;;5091908;28;20115;-66
2021/01/17 12:48:30;;;;;;;16.20;8.45;;;4.50;79.30;;;;;;5070875;28;20044;-66
2021/01/17 12:50:55;;;;;;;17.88;8.75;;;4.60;79.30;;;;;;5060452;28;20025;-66
2021/01/17 12:53:20;;;;;;;16.45;9.27;;;4.60;79.20;;;;;;5063186;28;20060;-66
2021/01/17 12:55:47;;;;;;;15.20;8.52;;;4.60;79.10;;;;;;5051593;28;20044;-66
2021/01/17 12:58:14;;;;;;;16.85;9.00;;;4.60;78.30;;;;;;5051891;28;20358;-67
2021/01/17 13:00:39;;;;;;;19.45;9.40;;;4.60;78.40;;;;;;5064171;28;20028;-67
2021/01/17 13:03:05;;;;;;;20.10;9.95;;;4.50;78.50;;;;;;5071198;28;20487;-66